Time;durP1;ratioP1;P1;durP2;ratioP2;P2;SDS_P1;SDS_P2;PMS_P1;PMS_P2;Temp;Humidity;BMP_temperature;BMP_pressure;BME280_temperature;BME280_humidity;BME280_pressure;Samples;Min_cycle;Max_cycle;Signal;HPM_P1;HPM_P2
2024/03/10 00:01:51;;;;;;;;;;;;;;;23.52;42.48;91977.84;5003500;28;7449;-58
2024/03/10 00:04:19;;;;;;;;;;;;;;;23.51;41.84;91981.91;4974541;28;7230;-59
2024/03/10 00:06:46;;;;;;;;;;;;;;;23.45;42.22;91975.88;5010204;28;7409;-59
2024/03/10 00:09:26;;;;;;;;;;;;;;;23.45;42.20;91992.31;5006119;28;8986;-59
2024/03/10 00:11:54;;;;;;;;;;;;;;;23.50;41.74;92002.38;4977883;28;7149;-59
2024/03/10 00:14:20;;;;;;;;;;;;;;;23.45;42.44;91995.06;4978520;28;7219;-58
2024/03/10 00:16:58;;;;;;;;;;;;;;;23.42;42.05;91985.22;4976710;28;9126;-59
2024/03/10 00:19:37;;;;;;;;;;;;;;;23.47;42.30;91998.00;5010487;28;8993;-59
2024/03/10 00:22:14;;;;;;;;;;;;;;;23.45;41.69;92001.28;4993331;28;9058;-59
2024/03/10 00:24:42;;;;;;;;;;;;;;;23.44;41.80;92001.84;4977790;28;9241;-59
2024/03/10 00:27:08;;;;;;;;;;;;;;;23.46;41.68;91969.13;4993634;28;7053;-59
2024/03/10 00:29:40;;;;;;;;;;;;;;;23.37;41.93;91975.16;4988041;28;8704;-59
2024/03/10 00:32:15;;;;;;;;;;;;;;;23.44;42.08;91983.38;5005500;28;7469;-59
2024/03/10 00:34:43;;;;;;;;;;;;;;;23.43;41.70;91976.44;4993538;28;7288;-59
2024/03/10 00:37:11;;;;;;;;;;;;;;;23.36;41.71;91940.81;5025910;28;7251;-58
2024/03/10 00:39:36;;;;;;;;;;;;;;;23.44;41.57;91955.22;5024376;28;8782;-59
2024/03/10 00:42:03;;;;;;;;;;;;;;;23.41;41.70;91975.53;5016451;28;9733;-59
2024/03/10 00:44:30;;;;;;;;;;;;;;;23.36;41.51;91957.28;5034029;28;7270;-59
2024/03/10 00:46:57;;;;;;;;;;;;;;;23.45;41.48;91945.69;5016650;28;9034;-59
2024/03/10 00:49:23;;;;;;;;;;;;;;;23.42;41.57;91957.78;5034166;28;7352;-59
2024/03/10 00:52:09;;;;;;;;;;;;;;;23.43;41.56;91951.75;5029033;28;7053;-59
2024/03/10 00:54:47;;;;;;;;;;;;;;;23.41;41.54;91945.34;5034896;28;7336;-58
2024/03/10 00:57:25;;;;;;;;;;;;;;;23.43;40.63;91948.25;5033364;28;7445;-59
2024/03/10 01:00:24;;;;;;;;;;;;;;;23.42;41.19;91928.34;5034500;28;6864;-59
2024/03/10 01:02:50;;;;;;;;;;;;;;;23.40;41.17;91911.00;4957396;28;7266;-59
2024/03/10 01:05:31;;;;;;;;;;;;;;;23.43;40.85;91929.06;4973438;28;7908;-58
2024/03/10 01:08:22;;;;;;;;;;;;;;;23.41;41.08;91913.16;4970978;28;7301;-58
2024/03/10 01:10:50;;;;;;;;;;;;;;;23.41;41.52;91920.66;4957573;28;9074;-58
2024/03/10 01:13:17;;;;;;;;;;;;;;;23.41;41.01;91935.13;4978119;28;9840;-58
2024/03/10 01:16:02;;;;;;;;;;;;;;;23.40;40.52;91921.97;4958869;28;7237;-58
2024/03/10 01:18:34;;;;;;;;;;;;;;;23.40;41.38;91921.97;4973557;28;7268;-58
2024/03/10 01:21:09;;;;;;;;;;;;;;;23.32;40.97;91902.75;4973978;28;7174;-58
2024/03/10 01:24:05;;;;;;;;;;;;;;;23.40;40.98;91921.97;4991465;28;9250;-58
2024/03/10 01:26:34;;;;;;;;;;;;;;;23.39;40.49;91904.03;4918293;29;8783;-58
2024/03/10 01:29:16;;;;;;;;;;;;;;;23.40;40.84;91916.47;4916112;29;7038;-59
2024/03/10 01:31:47;;;;;;;;;;;;;;;23.37;40.75;91953.22;4920251;29;7467;-58
2024/03/10 01:34:14;;;;;;;;;;;;;;;23.32;40.63;91900.00;4920124;29;7008;-58
2024/03/10 01:36:52;;;;;;;;;;;;;;;23.39;40.47;91909.50;4907398;29;7596;-58
2024/03/10 01:39:28;;;;;;;;;;;;;;;23.38;40.28;91897.09;4974924;28;7085;-58
2024/03/10 01:41:56;;;;;;;;;;;;;;;23.39;40.77;91912.25;4938262;28;7077;-58
2024/03/10 01:44:48;;;;;;;;;;;;;;;23.39;40.21;91904.03;4954236;28;7864;-58
2024/03/10 01:47:16;;;;;;;;;;;;;;;23.39;40.31;91890.31;4948493;28;7307;-59
2024/03/10 01:49:46;;;;;;;;;;;;;;;23.36;40.54;91894.19;4953647;29;9780;-58
2024/03/10 01:52:21;;;;;;;;;;;;;;;23.37;40.61;91910.06;4959472;28;9128;-61
2024/03/10 01:55:24;;;;;;;;;;;;;;;23.38;40.99;91866.94;4989114;28;9368;-60
2024/03/10 01:57:52;;;;;;;;;;;;;;;23.35;40.67;91882.47;4864371;29;8795;-59
2024/03/10 02:00:21;;;;;;;;;;;;;;;23.30;40.49;91875.16;4869484;29;7061;-59
2024/03/10 02:02:49;;;;;;;;;;;;;;;23.40;40.33;91867.09;4901542;29;7220;-59
2024/03/10 02:05:19;;;;;;;;;;;;;;;23.40;40.24;91886.31;4932398;29;7015;-59
2024/03/10 02:07:56;;;;;;;;;;;;;;;23.39;40.31;91857.41;4941810;29;7467;-60
2024/03/10 02:10:23;;;;;;;;;;;;;;;23.39;40.60;91887.56;4938404;29;7454;-60
2024/03/10 02:12:49;;;;;;;;;;;;;;;23.39;40.46;91884.84;4918223;29;9074;-59
2024/03/10 02:15:21;;;;;;;;;;;;;;;23.37;39.63;91871.69;4933952;29;7049;-68
2024/03/10 02:17:48;;;;;;;;;;;;;;;23.39;39.81;91898.53;4933639;29;7062;-68
2024/03/10 02:20:19;;;;;;;;;;;;;;;23.39;40.19;91876.59;4917827;29;7322;-68
2024/03/10 02:22:55;;;;;;;;;;;;;;;23.33;39.73;91829.44;4916698;29;7099;-68
2024/03/10 02:25:24;;;;;;;;;;;;;;;23.38;40.09;91864.19;4933803;29;8712;-68
2024/03/10 02:27:53;;;;;;;;;;;;;;;23.33;39.73;91843.91;4933078;29;7054;-68
2024/03/10 02:30:19;;;;;;;;;;;;;;;23.35;40.37;91843.34;4919971;29;6866;-67
2024/03/10 02:49:14;;;;;;;;;;;;;;;23.40;39.79;91839.66;5031708;28;7404;-68
2024/03/10 02:51:44;;;;;;;;;;;;;;;23.34;39.68;91828.91;5035310;28;9031;-68
2024/03/10 02:54:16;;;;;;;;;;;;;;;23.34;39.69;91836.41;5033714;28;7555;-69
2024/03/10 02:56:42;;;;;;;;;;;;;;;23.37;39.86;91816.81;5034483;28;7039;-69
2024/03/10 02:59:10;;;;;;;;;;;;;;;23.36;39.76;91801.63;5035112;28;7037;-68
2024/03/10 03:01:38;;;;;;;;;;;;;;;23.38;39.65;91801.81;5018317;28;9133;-68
2024/03/10 03:04:07;;;;;;;;;;;;;;;23.29;39.84;91774.97;5046904;28;7671;-68
2024/03/10 03:06:34;;;;;;;;;;;;;;;23.39;39.67;91769.63;5034454;28;9202;-68
2024/03/10 03:09:04;;;;;;;;;;;;;;;23.37;39.52;91750.25;5019905;28;7332;-68
2024/03/10 03:11:32;;;;;;;;;;;;;;;23.38;39.72;91724.31;5016741;28;9524;-68
2024/03/10 03:14:28;;;;;;;;;;;;;;;23.37;39.81;91687.91;5036510;28;7077;-68
2024/03/10 03:16:56;;;;;;;;;;;;;;;23.35;39.47;91684.28;4994984;28;9617;-68
2024/03/10 03:20:07;;;;;;;;;;;;;;;23.34;39.44;91656.13;4978976;28;9040;-68
2024/03/10 03:22:46;;;;;;;;;;;;;;;23.29;39.56;91668.03;4948411;28;7302;-68
2024/03/10 03:25:17;;;;;;;;;;;;;;;23.36;39.73;91683.69;4949298;28;7462;-61
2024/03/10 03:28:30;;;;;;;;;;;;;;;23.37;40.00;91692.66;4970215;28;7272;-61
2024/03/10 03:31:05;;;;;;;;;;;;;;;23.31;39.60;91712.06;4974661;28;7242;-61
2024/03/10 03:33:41;;;;;;;;;;;;;;;23.38;39.59;91741.47;4974061;28;7088;-61
2024/03/10 03:36:15;;;;;;;;;;;;;;;23.37;39.86;91737.28;4956144;28;7208;-61
2024/03/10 03:39:19;;;;;;;;;;;;;;;23.39;39.65;91748.41;4955507;28;7257;-61
2024/03/10 03:41:50;;;;;;;;;;;;;;;23.38;39.77;91754.47;4951930;28;7147;-61
2024/03/10 03:44:28;;;;;;;;;;;;;;;23.33;39.21;91727.97;4940269;28;8927;-61
2024/03/10 03:46:54;;;;;;;;;;;;;;;23.38;39.75;91732.53;4955381;28;7209;-61
2024/03/10 03:49:23;;;;;;;;;;;;;;;23.40;39.63;91740.94;4955841;28;6980;-61
2024/03/10 03:51:59;;;;;;;;;;;;;;;23.38;39.65;91735.28;4940179;28;7054;-61
2024/03/10 03:54:25;;;;;;;;;;;;;;;23.40;39.65;91735.44;4964694;28;8842;-61
2024/03/10 03:56:52;;;;;;;;;;;;;;;23.39;39.26;91742.19;4974951;28;8976;-61
2024/03/10 03:59:28;;;;;;;;;;;;;;;23.36;39.70;91727.59;4975112;28;7282;-60
2024/03/10 04:02:27;;;;;;;;;;;;;;;23.36;39.76;91708.38;4958715;28;9165;-61
2024/03/10 04:04:54;;;;;;;;;;;;;;;23.29;39.54;91697.47;4936363;29;7261;-61
2024/03/10 04:07:22;;;;;;;;;;;;;;;23.39;39.24;91710.03;4935980;29;9103;-61
2024/03/10 04:09:50;;;;;;;;;;;;;;;23.38;39.41;91716.06;4923897;29;7570;-61
2024/03/10 04:12:20;;;;;;;;;;;;;;;23.38;39.32;91738.00;4918594;29;9285;-61
2024/03/10 04:14:48;;;;;;;;;;;;;;;23.37;38.96;91709.13;4940736;28;7028;-61
2024/03/10 04:17:18;;;;;;;;;;;;;;;23.32;39.14;91701.81;4992375;28;7055;-61
2024/03/10 04:19:49;;;;;;;;;;;;;;;23.35;39.74;91717.19;4979387;28;8933;-61
2024/03/10 04:22:18;;;;;;;;;;;;;;;23.34;39.47;91671.88;4976500;28;7137;-61
2024/03/10 04:24:48;;;;;;;;;;;;;;;23.33;39.20;91675.84;4971140;28;7090;-61
2024/03/10 04:27:15;;;;;;;;;;;;;;;23.35;39.39;91678.78;4968697;28;6935;-61
2024/03/10 04:29:44;;;;;;;;;;;;;;;23.24;38.94;91672.44;4965971;28;7318;-61
2024/03/10 04:32:14;;;;;;;;;;;;;;;23.31;38.63;91681.16;4976118;28;9090;-61
2024/03/10 04:34:41;;;;;;;;;;;;;;;23.33;39.42;91689.56;4966819;28;7456;-52
2024/03/10 04:37:08;;;;;;;;;;;;;;;23.27;39.11;91676.09;4967000;28;8757;-53
2024/03/10 04:39:35;;;;;;;;;;;;;;;23.32;39.06;91669.63;4967806;28;9285;-54
2024/03/10 04:42:01;;;;;;;;;;;;;;;23.29;39.33;91675.53;5007484;28;6984;-53
2024/03/10 04:44:28;;;;;;;;;;;;;;;23.33;39.26;91681.34;5032126;28;8723;-54
2024/03/10 04:46:54;;;;;;;;;;;;;;;23.35;38.60;91692.50;5030820;28;7018;-53
2024/03/10 04:49:20;;;;;;;;;;;;;;;23.36;39.20;91713.16;5031468;28;9561;-52
2024/03/10 04:52:09;;;;;;;;;;;;;;;23.37;38.62;91706.38;5035072;28;7239;-53
2024/03/10 04:54:36;;;;;;;;;;;;;;;23.37;38.76;91720.81;5020569;28;7036;-54
2024/03/10 04:57:14;;;;;;;;;;;;;;;23.37;39.12;91715.34;5033924;28;9036;-54
2024/03/10 04:59:51;;;;;;;;;;;;;;;23.37;39.21;91720.09;5034683;28;9170;-54
2024/03/10 05:02:26;;;;;;;;;;;;;;;23.27;39.01;91708.25;5033374;28;7283;-53
2024/03/10 05:05:07;;;;;;;;;;;;;;;23.38;39.42;91732.53;5042715;28;7878;-52
2024/03/10 05:07:36;;;;;;;;;;;;;;;23.36;39.06;91729.63;5034017;28;8545;-54
2024/03/10 05:10:29;;;;;;;;;;;;;;;23.37;39.04;91731.06;5032172;28;7064;-53
2024/03/10 05:13:05;;;;;;;;;;;;;;;23.36;38.92;91724.13;5016574;28;9115;-54
2024/03/10 05:16:08;;;;;;;;;;;;;;;23.36;38.69;91713.88;5015740;28;7343;-51
2024/03/10 05:18:36;;;;;;;;;;;;;;;23.34;39.01;91713.72;4973168;28;9337;-53
2024/03/10 05:21:06;;;;;;;;;;;;;;;23.36;38.62;91707.69;4972843;28;7328;-52
2024/03/10 05:23:42;;;;;;;;;;;;;;;23.35;38.70;91717.19;4957341;28;7721;-53
2024/03/10 05:26:19;;;;;;;;;;;;;;;23.33;38.77;91695.06;4956817;28;7061;-53
2024/03/10 05:29:23;;;;;;;;;;;;;;;23.35;38.76;91695.97;4947579;28;9730;-53
2024/03/10 05:32:01;;;;;;;;;;;;;;;23.36;39.25;91685.75;4957545;28;7313;-53
2024/03/10 05:34:27;;;;;;;;;;;;;;;23.37;38.70;91689.91;4956874;28;9435;-52
2024/03/10 05:37:06;;;;;;;;;;;;;;;23.36;38.26;91683.00;4957991;28;9263;-54
2024/03/10 05:39:32;;;;;;;;;;;;;;;23.34;38.39;91675.31;4961449;28;7046;-53
2024/03/10 05:41:59;;;;;;;;;;;;;;;23.36;38.59;91702.19;4983299;28;9174;-52
2024/03/10 05:44:40;;;;;;;;;;;;;;;23.37;38.46;91695.41;4957629;28;9136;-55
2024/03/10 05:47:06;;;;;;;;;;;;;;;23.31;38.96;91664.72;4971683;28;9060;-61
2024/03/10 05:49:35;;;;;;;;;;;;;;;23.33;38.42;91684.06;4956685;28;9428;-61
2024/03/10 05:52:13;;;;;;;;;;;;;;;23.34;38.75;91686.28;4988949;28;7030;-61
2024/03/10 05:54:39;;;;;;;;;;;;;;;23.32;38.70;91708.03;5042271;28;9474;-61
2024/03/10 05:57:05;;;;;;;;;;;;;;;23.34;39.22;91693.81;5027479;28;7170;-61
2024/03/10 05:59:32;;;;;;;;;;;;;;;23.34;39.02;91696.53;5017426;28;6860;-61
2024/03/10 06:02:03;;;;;;;;;;;;;;;23.34;38.56;91686.28;5033510;28;9139;-53
2024/03/10 06:04:42;;;;;;;;;;;;;;;23.32;39.11;91696.31;5032521;28;7009;-53
2024/03/10 06:07:11;;;;;;;;;;;;;;;23.37;38.70;91689.91;5016722;28;9012;-53
2024/03/10 06:09:39;;;;;;;;;;;;;;;23.37;38.99;91700.91;5032227;28;9074;-53
2024/03/10 06:12:20;;;;;;;;;;;;;;;23.36;39.01;91713.16;5041756;28;7076;-53
2024/03/10 06:14:46;;;;;;;;;;;;;;;23.36;38.94;91721.41;5031085;28;7047;-53
2024/03/10 06:17:13;;;;;;;;;;;;;;;23.27;38.92;91701.47;5031488;28;7451;-53
2024/03/10 06:25:27;;;;;;;;;;;;;;;23.38;38.84;91716.06;5024325;28;7321;-53
2024/03/10 06:27:56;;;;;;;;;;;;;;;23.32;39.32;91708.03;5014431;28;7291;-52
2024/03/10 06:30:24;;;;;;;;;;;;;;;23.38;39.26;91721.56;5044378;28;7521;-52
2024/03/10 06:32:50;;;;;;;;;;;;;;;23.41;39.19;91698.47;5031260;28;9787;-52
2024/03/10 06:35:19;;;;;;;;;;;;;;;23.41;39.40;91688.25;5026051;28;7057;-53
2024/03/10 06:37:48;;;;;;;;;;;;;;;23.43;38.89;91679.44;5035302;28;7053;-52
2024/03/10 06:40:16;;;;;;;;;;;;;;;23.42;39.40;91688.97;5036278;28;9128;-54
2024/03/10 06:42:47;;;;;;;;;;;;;;;23.44;39.40;91702.84;5014183;28;7303;-54
2024/03/10 06:45:15;;;;;;;;;;;;;;;23.43;38.74;91704.13;5036866;28;9034;-59
2024/03/10 06:47:43;;;;;;;;;;;;;;;23.35;39.20;91701.47;5036432;28;7469;-59
2024/03/10 06:50:09;;;;;;;;;;;;;;;23.45;38.78;91718.75;5032603;28;6909;-59
2024/03/10 06:52:46;;;;;;;;;;;;;;;23.37;36.74;91720.09;5019040;28;7378;-59
2024/03/10 06:55:21;;;;;;;;;;;;;;;23.38;34.88;91716.06;5019506;28;7302;-60
2024/03/10 06:57:48;;;;;;;;;;;;;;;23.27;34.97;91712.44;5037390;28;7241;-60
2024/03/10 07:00:24;;;;;;;;;;;;;;;23.22;36.83;91705.19;5034727;28;9445;-60
2024/03/10 07:02:58;;;;;;;;;;;;;;;23.28;37.14;91702.22;5035160;28;9008;-54
2024/03/10 07:05:25;;;;;;;;;;;;;;;23.30;37.61;91696.16;5035282;28;7127;-59
2024/03/10 07:07:52;;;;;;;;;;;;;;;23.31;37.54;91694.88;5018337;28;7036;-59
2024/03/10 07:10:24;;;;;;;;;;;;;;;23.31;37.57;91712.06;5034627;28;9043;-59
2024/03/10 07:12:50;;;;;;;;;;;;;;;23.34;38.38;91699.28;5036727;28;7327;-59
2024/03/10 07:15:16;;;;;;;;;;;;;;;23.35;38.29;91704.22;5015153;28;7079;-59
2024/03/10 07:17:44;;;;;;;;;;;;;;;23.37;37.87;91701.63;5022470;28;7268;-59
2024/03/10 07:20:17;;;;;;;;;;;;;;;23.40;39.00;91713.50;5031813;28;9147;-59
2024/03/10 07:22:51;;;;;;;;;;;;;;;23.44;38.90;91713.81;5031019;28;7049;-59
2024/03/10 07:25:18;;;;;;;;;;;;;;;23.50;38.77;91728.03;5039245;28;9197;-59
2024/03/10 07:27:53;;;;;;;;;;;;;;;23.55;38.54;91713.38;5032167;28;7378;-59
2024/03/10 07:30:21;;;;;;;;;;;;;;;23.62;38.76;91707.09;5032408;28;8984;-59
2024/03/10 07:32:49;;;;;;;;;;;;;;;23.59;38.90;91692.50;5034870;28;7275;-59
2024/03/10 07:35:22;;;;;;;;;;;;;;;23.67;38.89;91706.88;5034994;28;7068;-59
2024/03/10 07:37:49;;;;;;;;;;;;;;;23.79;38.98;91705.09;5034937;28;7145;-59
2024/03/10 07:40:16;;;;;;;;;;;;;;;23.86;39.09;91709.78;5032091;28;9399;-60
2024/03/10 07:42:47;;;;;;;;;;;;;;;23.94;38.67;91718.69;5035104;28;7132;-59
2024/03/10 07:45:25;;;;;;;;;;;;;;;24.08;38.41;91738.34;5017452;28;7224;-60
2024/03/10 07:47:51;;;;;;;;;;;;;;;24.18;38.52;91738.44;5025333;28;7227;-60
2024/03/10 07:50:18;;;;;;;;;;;;;;;24.29;38.52;91746.94;5034483;28;8967;-60
2024/03/10 09:21:45;;;;;;;;;;;;;;;20.92;47.59;91818.09;5092524;27;578614;-63
2024/03/10 09:24:14;;;;;;;;;;;;;;;21.39;47.02;91828.66;5088349;28;9186;-64
2024/03/10 09:26:44;;;;;;;;;;;;;;;21.81;46.90;91839.25;5093389;28;7021;-63
2024/03/10 09:29:14;;;;;;;;;;;;;;;22.17;46.32;91840.56;5075220;28;9703;-65
2024/03/10 09:31:46;;;;;;;;;;;;;;;22.52;45.05;91847.06;5087681;28;7299;-65
2024/03/10 09:34:15;;;;;;;;;;;;;;;22.79;44.51;91842.66;5106066;28;7428;-66
2024/03/10 09:36:42;;;;;;;;;;;;;;;22.98;43.60;91837.47;5091436;28;7011;-66
2024/03/10 09:39:12;;;;;;;;;;;;;;;23.17;43.99;91840.47;5103545;28;7781;-66
2024/03/10 09:41:43;;;;;;;;;;;;;;;23.27;43.06;91849.56;5092684;28;7018;-67
2024/03/10 09:44:27;;;;;;;;;;;;;;;23.45;42.78;91852.41;5093363;28;7617;-68
2024/03/10 09:46:57;;;;;;;;;;;;;;;23.56;41.71;91860.22;5087226;28;8720;-67
2024/03/10 09:49:25;;;;;;;;;;;;;;;23.54;41.54;91855.31;5098966;28;7242;-68
2024/03/10 09:51:56;;;;;;;;;;;;;;;23.70;41.39;91866.94;5089108;28;8977;-67
2024/03/10 09:54:22;;;;;;;;;;;;;;;23.68;41.69;91862.00;5102973;28;7486;-68
2024/03/10 09:56:55;;;;;;;;;;;;;;;23.72;41.13;91865.09;5102652;28;9141;-66
2024/03/10 09:59:39;;;;;;;;;;;;;;;23.82;41.02;91878.91;5093415;28;9074;-66
2024/03/10 10:02:25;;;;;;;;;;;;;;;23.79;41.22;91883.50;5052769;28;7233;-67
2024/03/10 10:05:14;;;;;;;;;;;;;;;23.82;41.13;91885.13;5096257;28;8998;-67
2024/03/10 10:07:53;;;;;;;;;;;;;;;23.81;41.03;91889.19;5094842;28;7384;-68
2024/03/10 10:10:26;;;;;;;;;;;;;;;23.83;41.22;91885.88;5083087;28;7056;-64
2024/03/10 10:12:53;;;;;;;;;;;;;;;23.81;40.77;91889.19;5092480;28;7195;-64
2024/03/10 10:15:26;;;;;;;;;;;;;;;23.82;41.66;91892.63;5089044;28;7473;-64
2024/03/10 10:17:59;;;;;;;;;;;;;;;23.78;43.08;91884.06;5101081;28;9068;-66
2024/03/10 10:20:25;;;;;;;;;;;;;;;23.91;43.54;91892.03;5089342;28;7290;-65
2024/03/10 10:23:00;;;;;;;;;;;;;;;24.08;63.24;91908.59;5080979;28;9108;-64
2024/03/10 10:25:35;;;;;;;;;;;;;;;24.52;61.64;91914.31;5089000;28;7039;-65
2024/03/10 10:28:02;;;;;;;;;;;;;;;24.89;60.33;91929.00;5092528;28;7229;-67
2024/03/10 10:30:30;;;;;;;;;;;;;;;25.13;58.56;91928.22;5087285;28;7385;-64
2024/03/10 10:33:11;;;;;;;;;;;;;;;25.33;56.95;91929.84;5072253;28;7141;-68
2024/03/10 10:35:44;;;;;;;;;;;;;;;25.43;50.70;91919.66;5085499;28;7025;-63
2024/03/10 10:38:12;;;;;;;;;;;;;;;25.49;43.18;91914.63;5070325;28;7600;-63
2024/03/10 10:40:51;;;;;;;;;;;;;;;25.51;44.07;91901.03;5071737;28;7034;-61
2024/03/10 10:43:17;;;;;;;;;;;;;;;25.07;39.09;91900.22;5071333;28;7350;-62
2024/03/10 10:45:45;;;;;;;;;;;;;;;24.73;39.17;91905.69;5075096;28;7274;-61
2024/03/10 10:48:16;;;;;;;;;;;;;;;24.47;39.08;91907.00;5063533;28;7022;-61
2024/03/10 10:50:47;;;;;;;;;;;;;;;24.31;38.65;91917.41;5067195;28;7102;-61
2024/03/10 10:53:15;;;;;;;;;;;;;;;24.16;38.95;91925.75;5073307;28;7170;-61
2024/03/10 10:55:45;;;;;;;;;;;;;;;24.08;39.28;91936.06;5071156;28;9378;-61
2024/03/10 10:58:19;;;;;;;;;;;;;;;23.95;39.42;91919.81;5068541;28;9146;-60
2024/03/10 11:00:50;;;;;;;;;;;;;;;23.89;39.78;91922.06;5053727;28;7207;-61
2024/03/10 11:03:26;;;;;;;;;;;;;;;23.84;39.67;91921.00;5071257;28;9258;-61
2024/03/10 11:06:08;;;;;;;;;;;;;;;23.84;40.09;91947.69;5066497;28;7320;-61
2024/03/10 11:08:39;;;;;;;;;;;;;;;23.79;39.75;91954.16;5059930;28;7672;-61
2024/03/10 11:11:05;;;;;;;;;;;;;;;23.76;39.77;91963.50;5072163;28;8586;-61
2024/03/10 11:13:56;;;;;;;;;;;;;;;23.76;40.40;91969.72;5071804;28;7048;-61
2024/03/10 11:16:35;;;;;;;;;;;;;;;23.66;39.98;91971.56;5071004;28;7292;-61
2024/03/10 11:19:21;;;;;;;;;;;;;;;23.75;40.64;91984.00;5068629;28;8065;-61
2024/03/10 11:21:52;;;;;;;;;;;;;;;23.75;40.23;91973.72;5080023;28;9659;-61
2024/03/10 11:24:26;;;;;;;;;;;;;;;23.72;40.79;91969.38;5069733;28;7041;-61
2024/03/10 11:27:11;;;;;;;;;;;;;;;23.73;40.67;91970.06;5071027;28;9713;-61
2024/03/10 11:29:41;;;;;;;;;;;;;;;23.71;41.08;91983.63;5082580;28;8303;-61
2024/03/10 11:32:33;;;;;;;;;;;;;;;23.82;42.33;91980.47;5054885;28;9097;-62
2024/03/10 11:41:38;;;;;;;;;;;;;;;23.74;41.51;91971.56;5066631;28;7088;-64
2024/03/10 11:44:06;;;;;;;;;;;;;;;23.43;41.45;91959.97;5039724;28;9305;-60
2024/03/10 11:46:35;;;;;;;;;;;;;;;23.31;42.03;91969.13;5031777;28;7263;-62
2024/03/10 11:49:08;;;;;;;;;;;;;;;23.20;41.77;91959.28;5055807;28;7064;-62
2024/03/10 11:51:39;;;;;;;;;;;;;;;23.23;41.83;91977.38;5045300;28;6936;-62
2024/03/10 11:54:11;;;;;;;;;;;;;;;23.22;42.45;91984.88;5048991;28;8620;-62
2024/03/10 11:56:39;;;;;;;;;;;;;;;23.23;41.99;91994.56;5048831;28;7746;-62
2024/03/10 11:59:11;;;;;;;;;;;;;;;23.17;42.09;91993.28;5030969;28;9202;-62
2024/03/10 12:01:39;;;;;;;;;;;;;;;23.21;42.47;91999.13;5048012;28;8917;-62
2024/03/10 12:04:08;;;;;;;;;;;;;;;23.22;42.54;92003.34;5048174;28;9098;-62
2024/03/10 12:06:37;;;;;;;;;;;;;;;23.15;42.21;92012.31;5048588;28;7032;-62
2024/03/10 12:09:09;;;;;;;;;;;;;;;23.20;42.69;92019.63;5050588;28;7007;-62
2024/03/10 12:11:38;;;;;;;;;;;;;;;23.16;42.29;92022.00;5047667;28;7285;-62
2024/03/10 12:14:08;;;;;;;;;;;;;;;23.10;42.41;92011.22;5022740;28;7046;-62
2024/03/10 12:16:35;;;;;;;;;;;;;;;23.12;42.31;92033.34;5046787;28;9325;-62
2024/03/10 12:19:03;;;;;;;;;;;;;;;22.97;42.51;92008.69;5050650;28;9410;-62
2024/03/10 12:21:32;;;;;;;;;;;;;;;23.07;42.55;92033.53;5024742;28;7427;-62
2024/03/10 12:24:00;;;;;;;;;;;;;;;23.08;42.60;92035.72;5026761;28;7036;-62
2024/03/10 12:26:32;;;;;;;;;;;;;;;23.10;42.29;92040.66;5029195;28;7031;-62
2024/03/10 12:29:03;;;;;;;;;;;;;;;23.12;42.99;92041.56;5026008;28;8942;-62
2024/03/10 12:31:29;;;;;;;;;;;;;;;23.08;42.70;92032.25;5025575;28;7358;-62
2024/03/10 12:33:55;;;;;;;;;;;;;;;23.17;42.57;92040.66;5023510;28;7563;-62
2024/03/10 12:36:24;;;;;;;;;;;;;;;23.19;42.63;92040.81;5024126;28;7062;-62
2024/03/10 12:38:52;;;;;;;;;;;;;;;23.21;42.84;92043.75;5010522;28;7158;-62
2024/03/10 12:41:23;;;;;;;;;;;;;;;23.23;42.83;92040.44;5023429;28;7857;-62
2024/03/10 12:43:49;;;;;;;;;;;;;;;23.24;42.69;92050.88;5027996;28;9337;-61
2024/03/10 12:46:17;;;;;;;;;;;;;;;23.15;42.67;92037.72;5028418;28;7226;-61
2024/03/10 12:48:48;;;;;;;;;;;;;;;23.11;42.69;92023.66;5029612;28;7050;-62
2024/03/10 12:51:15;;;;;;;;;;;;;;;23.19;42.55;92040.81;5025660;28;7314;-61
2024/03/10 12:53:48;;;;;;;;;;;;;;;23.19;42.65;92035.34;4999153;28;8732;-66
2024/03/10 12:56:16;;;;;;;;;;;;;;;23.22;42.42;92039.75;5015976;28;7644;-60
2024/03/10 12:58:51;;;;;;;;;;;;;;;23.23;42.81;92034.97;5010734;28;7037;-60
2024/03/10 13:01:26;;;;;;;;;;;;;;;23.21;42.25;92035.53;5013763;28;7040;-60
2024/03/10 13:03:52;;;;;;;;;;;;;;;23.17;42.58;92040.66;5017034;28;8701;-60
2024/03/10 13:06:27;;;;;;;;;;;;;;;23.19;42.44;92038.09;5009686;28;9042;-60
2024/03/10 13:08:57;;;;;;;;;;;;;;;23.20;41.81;92049.78;5016828;28;7081;-58
2024/03/10 13:14:26;;;;;;;;;;;;;;;23.11;42.56;92051.09;5119014;27;287413;-58
2024/03/10 13:16:52;;;;;;;;;;;;;;;23.10;42.62;92054.34;5113379;28;8976;-58
2024/03/10 13:19:18;;;;;;;;;;;;;;;23.12;42.59;92051.78;5113306;28;6835;-55
2024/03/10 13:21:45;;;;;;;;;;;;;;;23.14;43.01;92055.44;5100971;28;7458;-59
2024/03/10 13:24:14;;;;;;;;;;;;;;;23.14;42.69;92060.94;5101395;28;7639;-57
2024/03/10 13:26:40;;;;;;;;;;;;;;;23.16;43.32;92058.38;5100880;28;9049;-56
2024/03/10 13:29:16;;;;;;;;;;;;;;;23.19;42.90;92062.03;5085516;28;7278;-55
2024/03/10 13:31:50;;;;;;;;;;;;;;;23.18;43.42;92050.31;5098826;28;7030;-56
2024/03/10 13:34:16;;;;;;;;;;;;;;;23.17;43.11;92059.84;5085524;28;7605;-55
2024/03/10 13:36:45;;;;;;;;;;;;;;;23.19;42.98;92064.78;5097688;28;6986;-55
2024/03/10 13:39:28;;;;;;;;;;;;;;;23.17;43.11;92073.56;5099643;28;7038;-55
2024/03/10 13:42:00;;;;;;;;;;;;;;;23.18;43.15;92069.50;5091783;28;6903;-56
2024/03/10 13:44:27;;;;;;;;;;;;;;;23.16;43.41;92074.13;5088291;28;7013;-56
2024/03/10 13:46:53;;;;;;;;;;;;;;;23.16;43.39;92082.34;5089752;28;7156;-56
2024/03/10 13:49:22;;;;;;;;;;;;;;;23.16;43.04;92077.56;5104592;28;7058;-56
2024/03/10 13:51:56;;;;;;;;;;;;;;;23.17;43.24;92090.00;5088147;28;8505;-57
2024/03/10 13:54:34;;;;;;;;;;;;;;;23.16;43.01;92085.09;5099642;28;7263;-56
2024/03/10 13:57:09;;;;;;;;;;;;;;;23.11;42.98;92094.94;5104314;28;7030;-56
2024/03/10 13:59:37;;;;;;;;;;;;;;;23.10;43.04;92095.47;5088406;28;7048;-56
2024/03/10 14:02:04;;;;;;;;;;;;;;;23.08;43.60;92098.78;5099714;28;7098;-56
2024/03/10 14:04:33;;;;;;;;;;;;;;;23.06;43.04;92101.34;5098743;28;9208;-57
2024/03/10 14:07:19;;;;;;;;;;;;;;;23.14;43.19;92115.78;5100542;28;7380;-56
2024/03/10 14:09:46;;;;;;;;;;;;;;;23.04;43.22;92117.63;5105125;28;7032;-56
2024/03/10 14:12:23;;;;;;;;;;;;;;;23.11;43.00;92116.88;5088578;28;7248;-56
2024/03/10 14:14:50;;;;;;;;;;;;;;;23.10;43.33;92123.63;5094492;28;7088;-56
2024/03/10 14:17:19;;;;;;;;;;;;;;;23.05;43.30;92121.09;5097196;28;7100;-56
2024/03/10 14:19:45;;;;;;;;;;;;;;;23.05;42.81;92118.34;5084777;28;7038;-56
2024/03/10 14:22:12;;;;;;;;;;;;;;;23.10;43.36;92129.13;5088949;28;9212;-57
2024/03/10 14:24:39;;;;;;;;;;;;;;;23.09;43.46;92140.66;5094542;28;7024;-58
2024/03/10 14:27:08;;;;;;;;;;;;;;;23.07;43.32;92132.97;5086130;28;7223;-58
2024/03/10 14:30:12;;;;;;;;;;;;;;;23.08;43.55;92139.91;5087513;28;9388;-57
2024/03/10 14:32:47;;;;;;;;;;;;;;;22.98;43.40;92141.75;5039617;28;9078;-57
2024/03/10 14:35:23;;;;;;;;;;;;;;;23.02;43.46;92135.88;5023992;28;9154;-58
2024/03/10 14:37:52;;;;;;;;;;;;;;;23.05;43.22;92149.22;5017757;28;7115;-58
2024/03/10 14:40:26;;;;;;;;;;;;;;;23.02;43.54;92153.06;5041026;28;7170;-58
2024/03/10 14:42:59;;;;;;;;;;;;;;;22.99;43.68;92148.66;5036475;28;7279;-58
2024/03/10 14:45:25;;;;;;;;;;;;;;;22.95;43.54;92153.78;5037919;28;7904;-58
2024/03/10 14:47:53;;;;;;;;;;;;;;;23.03;43.40;92173.00;5037510;28;7283;-58
2024/03/10 14:50:29;;;;;;;;;;;;;;;22.98;43.32;92166.41;5032205;28;7024;-58
2024/03/10 14:52:58;;;;;;;;;;;;;;;22.90;43.35;92173.88;5036002;28;7069;-57
2024/03/10 14:55:26;;;;;;;;;;;;;;;23.03;43.67;92198.38;5036669;28;7127;-58
2024/03/10 14:57:52;;;;;;;;;;;;;;;23.02;43.66;92196.94;5017166;28;7532;-58
2024/03/10 15:03:11;;;;;;;;;;;;;;;23.01;43.65;92206.44;5032840;28;9442;-59
2024/03/10 15:05:49;;;;;;;;;;;;;;;23.01;43.46;92211.19;5035775;28;9110;-58
2024/03/10 15:08:27;;;;;;;;;;;;;;;22.98;43.62;92209.53;5063710;28;8693;-58
2024/03/10 15:10:56;;;;;;;;;;;;;;;23.00;43.86;92221.44;5064915;28;7022;-58
2024/03/10 15:13:29;;;;;;;;;;;;;;;23.00;43.53;92224.16;5082308;28;7525;-58
2024/03/10 15:15:55;;;;;;;;;;;;;;;22.97;43.31;92233.47;5081687;28;7327;-63
2024/03/10 15:18:24;;;;;;;;;;;;;;;22.97;43.69;92235.47;5085124;28;7589;-63
2024/03/10 15:20:50;;;;;;;;;;;;;;;22.97;43.63;92238.94;5077247;28;9211;-63
2024/03/10 15:23:23;;;;;;;;;;;;;;;22.91;43.81;92235.66;5086314;28;7006;-62
2024/03/10 15:25:53;;;;;;;;;;;;;;;22.95;43.40;92247.00;5079786;28;6963;-63
2024/03/10 15:28:37;;;;;;;;;;;;;;;22.96;43.74;92258.69;5080026;28;9213;-66